sensor_id;sensor_type;location;lat;lon;timestamp;temperature;humidity
65374;SHT31;52070;53.760;9.678;2022-12-11T00:00:10;-1.59;83.87
65374;SHT31;52070;53.760;9.678;2022-12-11T00:02:40;-1.60;83.73
65374;SHT31;52070;53.760;9.678;2022-12-11T00:05:08;-1.60;83.88
65374;SHT31;52070;53.760;9.678;2022-12-11T00:07:36;-1.51;83.43
65374;SHT31;52070;53.760;9.678;2022-12-11T00:10:04;-1.53;83.29
65374;SHT31;52070;53.760;9.678;2022-12-11T00:12:31;-1.56;83.37
65374;SHT31;52070;53.760;9.678;2022-12-11T00:14:58;-1.60;83.52
65374;SHT31;52070;53.760;9.678;2022-12-11T00:17:25;-1.62;83.71
65374;SHT31;52070;53.760;9.678;2022-12-11T00:19:52;-1.66;83.91
65374;SHT31;52070;53.760;9.678;2022-12-11T00:22:20;-1.64;84.05
65374;SHT31;52070;53.760;9.678;2022-12-11T00:24:47;-1.60;84.12
65374;SHT31;52070;53.760;9.678;2022-12-11T00:27:14;-1.60;83.98
65374;SHT31;52070;53.760;9.678;2022-12-11T00:29:41;-1.62;83.79
65374;SHT31;52070;53.760;9.678;2022-12-11T00:32:08;-1.60;83.77
65374;SHT31;52070;53.760;9.678;2022-12-11T00:34:35;-1.64;83.92
65374;SHT31;52070;53.760;9.678;2022-12-11T00:37:02;-1.62;83.95
65374;SHT31;52070;53.760;9.678;2022-12-11T00:39:31;-1.62;83.64
65374;SHT31;52070;53.760;9.678;2022-12-11T00:41:58;-1.64;83.70
65374;SHT31;52070;53.760;9.678;2022-12-11T00:44:25;-1.63;83.86
65374;SHT31;52070;53.760;9.678;2022-12-11T00:46:52;-1.64;83.93
65374;SHT31;52070;53.760;9.678;2022-12-11T00:49:19;-1.66;84.15
65374;SHT31;52070;53.760;9.678;2022-12-11T00:51:45;-1.60;84.15
65374;SHT31;52070;53.760;9.678;2022-12-11T00:54:12;-1.63;83.87
65374;SHT31;52070;53.760;9.678;2022-12-11T00:56:41;-1.66;83.92
65374;SHT31;52070;53.760;9.678;2022-12-11T00:59:08;-1.62;83.91
65374;SHT31;52070;53.760;9.678;2022-12-11T01:01:35;-1.56;83.88
65374;SHT31;52070;53.760;9.678;2022-12-11T01:04:02;-1.59;83.79
65374;SHT31;52070;53.760;9.678;2022-12-11T01:06:29;-1.53;83.52
65374;SHT31;52070;53.760;9.678;2022-12-11T01:08:56;-1.58;83.42
65374;SHT31;52070;53.760;9.678;2022-12-11T01:11:37;-1.60;83.72
65374;SHT31;52070;53.760;9.678;2022-12-11T01:14:06;-1.59;83.87
65374;SHT31;52070;53.760;9.678;2022-12-11T01:16:34;-1.58;83.80
65374;SHT31;52070;53.760;9.678;2022-12-11T01:19:01;-1.62;83.94
65374;SHT31;52070;53.760;9.678;2022-12-11T01:21:29;-1.62;84.10
65374;SHT31;52070;53.760;9.678;2022-12-11T01:23:56;-1.64;84.22
65374;SHT31;52070;53.760;9.678;2022-12-11T01:26:23;-1.72;84.33
65374;SHT31;52070;53.760;9.678;2022-12-11T01:28:50;-1.72;84.52
65374;SHT31;52070;53.760;9.678;2022-12-11T01:31:19;-1.70;84.55
65374;SHT31;52070;53.760;9.678;2022-12-11T01:33:47;-1.70;84.59
65374;SHT31;52070;53.760;9.678;2022-12-11T01:36:16;-1.72;84.61
65374;SHT31;52070;53.760;9.678;2022-12-11T01:38:44;-1.67;84.71
65374;SHT31;52070;53.760;9.678;2022-12-11T01:41:11;-1.63;84.54
65374;SHT31;52070;53.760;9.678;2022-12-11T01:43:57;-1.62;84.21
65374;SHT31;52070;53.760;9.678;2022-12-11T01:46:27;-1.64;84.02
65374;SHT31;52070;53.760;9.678;2022-12-11T01:48:55;-1.63;84.03
65374;SHT31;52070;53.760;9.678;2022-12-11T01:51:22;-1.67;84.21
65374;SHT31;52070;53.760;9.678;2022-12-11T01:53:52;-1.70;84.27
65374;SHT31;52070;53.760;9.678;2022-12-11T01:56:21;-1.69;84.36
65374;SHT31;52070;53.760;9.678;2022-12-11T01:58:53;-1.62;84.42
65374;SHT31;52070;53.760;9.678;2022-12-11T02:01:24;-1.64;84.21
65374;SHT31;52070;53.760;9.678;2022-12-11T02:03:55;-1.64;84.03
65374;SHT31;52070;53.760;9.678;2022-12-11T02:06:30;-1.67;84.21
65374;SHT31;52070;53.760;9.678;2022-12-11T02:08:58;-1.70;84.31
65374;SHT31;52070;53.760;9.678;2022-12-11T02:11:31;-1.70;84.00
65374;SHT31;52070;53.760;9.678;2022-12-11T02:14:04;-1.67;84.26
65374;SHT31;52070;53.760;9.678;2022-12-11T02:16:37;-1.70;84.51
65374;SHT31;52070;53.760;9.678;2022-12-11T02:19:17;-1.70;84.77
65374;SHT31;52070;53.760;9.678;2022-12-11T02:21:49;-1.70;84.73
65374;SHT31;52070;53.760;9.678;2022-12-11T02:24:26;-1.69;84.77
65374;SHT31;52070;53.760;9.678;2022-12-11T02:27:10;-1.64;84.45
65374;SHT31;52070;53.760;9.678;2022-12-11T02:29:45;-1.60;84.17
65374;SHT31;52070;53.760;9.678;2022-12-11T02:32:18;-1.66;84.10
65374;SHT31;52070;53.760;9.678;2022-12-11T02:34:54;-1.64;84.25
65374;SHT31;52070;53.760;9.678;2022-12-11T02:37:23;-1.66;84.28
65374;SHT31;52070;53.760;9.678;2022-12-11T02:39:54;-1.64;84.05
65374;SHT31;52070;53.760;9.678;2022-12-11T02:42:26;-1.62;84.16
65374;SHT31;52070;53.760;9.678;2022-12-11T02:44:57;-1.60;84.16
65374;SHT31;52070;53.760;9.678;2022-12-11T02:47:26;-1.64;84.13
65374;SHT31;52070;53.760;9.678;2022-12-11T02:49:54;-1.66;84.09
65374;SHT31;52070;53.760;9.678;2022-12-11T02:52:23;-1.66;84.17
65374;SHT31;52070;53.760;9.678;2022-12-11T02:54:53;-1.70;84.25
65374;SHT31;52070;53.760;9.678;2022-12-11T02:57:26;-1.69;84.50
65374;SHT31;52070;53.760;9.678;2022-12-11T02:59:53;-1.74;84.39
65374;SHT31;52070;53.760;9.678;2022-12-11T03:02:22;-1.74;84.57
65374;SHT31;52070;53.760;9.678;2022-12-11T03:04:49;-1.76;84.69
65374;SHT31;52070;53.760;9.678;2022-12-11T03:07:18;-1.76;84.76
65374;SHT31;52070;53.760;9.678;2022-12-11T03:09:49;-1.80;84.74
65374;SHT31;52070;53.760;9.678;2022-12-11T03:12:17;-1.79;84.70
65374;SHT31;52070;53.760;9.678;2022-12-11T03:14:45;-1.73;84.50
65374;SHT31;52070;53.760;9.678;2022-12-11T03:17:16;-1.72;84.20
65374;SHT31;52070;53.760;9.678;2022-12-11T03:19:51;-1.69;83.75
65374;SHT31;52070;53.760;9.678;2022-12-11T03:22:21;-1.72;83.90
65374;SHT31;52070;53.760;9.678;2022-12-11T03:24:56;-1.76;83.92
65374;SHT31;52070;53.760;9.678;2022-12-11T03:27:27;-1.73;83.89
65374;SHT31;52070;53.760;9.678;2022-12-11T03:29:59;-1.76;83.73
65374;SHT31;52070;53.760;9.678;2022-12-11T03:32:31;-1.74;84.21
65374;SHT31;52070;53.760;9.678;2022-12-11T03:35:06;-1.74;84.26
65374;SHT31;52070;53.760;9.678;2022-12-11T03:37:36;-1.77;84.26
65374;SHT31;52070;53.760;9.678;2022-12-11T03:40:08;-1.82;84.19
65374;SHT31;52070;53.760;9.678;2022-12-11T03:42:36;-1.76;84.20
65374;SHT31;52070;53.760;9.678;2022-12-11T03:45:06;-1.67;83.39
65374;SHT31;52070;53.760;9.678;2022-12-11T03:47:34;-1.74;83.10
65374;SHT31;52070;53.760;9.678;2022-12-11T03:50:04;-1.76;83.11
65374;SHT31;52070;53.760;9.678;2022-12-11T03:52:34;-1.79;83.36
65374;SHT31;52070;53.760;9.678;2022-12-11T03:55:03;-1.82;83.58
65374;SHT31;52070;53.760;9.678;2022-12-11T03:57:34;-1.77;84.05
65374;SHT31;52070;53.760;9.678;2022-12-11T04:00:01;-1.80;83.80
65374;SHT31;52070;53.760;9.678;2022-12-11T04:02:29;-1.80;83.73
65374;SHT31;52070;53.760;9.678;2022-12-11T04:04:56;-1.82;83.78
65374;SHT31;52070;53.760;9.678;2022-12-11T04:07:25;-1.86;83.88
65374;SHT31;52070;53.760;9.678;2022-12-11T04:09:53;-1.83;83.75
65374;SHT31;52070;53.760;9.678;2022-12-11T04:12:20;-1.87;83.77
65374;SHT31;52070;53.760;9.678;2022-12-11T04:14:47;-1.87;83.97
65374;SHT31;52070;53.760;9.678;2022-12-11T04:17:29;-1.89;83.84
65374;SHT31;52070;53.760;9.678;2022-12-11T04:20:14;-1.90;83.50
65374;SHT31;52070;53.760;9.678;2022-12-11T04:23:02;-1.80;83.03
65374;SHT31;52070;53.760;9.678;2022-12-11T04:25:47;-1.84;83.06
65374;SHT31;52070;53.760;9.678;2022-12-11T04:28:14;-1.82;82.97
65374;SHT31;52070;53.760;9.678;2022-12-11T04:30:47;-1.83;82.37
65374;SHT31;52070;53.760;9.678;2022-12-11T04:33:14;-1.89;82.51
65374;SHT31;52070;53.760;9.678;2022-12-11T04:35:41;-1.90;82.88
65374;SHT31;52070;53.760;9.678;2022-12-11T04:38:09;-1.90;82.92
65374;SHT31;52070;53.760;9.678;2022-12-11T04:40:36;-1.94;82.81
65374;SHT31;52070;53.760;9.678;2022-12-11T04:43:03;-1.94;83.24
65374;SHT31;52070;53.760;9.678;2022-12-11T04:45:30;-1.91;83.31
65374;SHT31;52070;53.760;9.678;2022-12-11T04:47:57;-1.94;83.16
65374;SHT31;52070;53.760;9.678;2022-12-11T04:50:24;-1.97;83.18
65374;SHT31;52070;53.760;9.678;2022-12-11T04:52:53;-2.00;83.28
65374;SHT31;52070;53.760;9.678;2022-12-11T04:55:21;-2.01;83.29
65374;SHT31;52070;53.760;9.678;2022-12-11T04:57:49;-2.00;83.29
65374;SHT31;52070;53.760;9.678;2022-12-11T05:00:16;-2.00;83.22
65374;SHT31;52070;53.760;9.678;2022-12-11T05:02:43;-2.00;83.33
65374;SHT31;52070;53.760;9.678;2022-12-11T05:05:10;-2.00;83.49
65374;SHT31;52070;53.760;9.678;2022-12-11T05:07:37;-1.98;83.22
65374;SHT31;52070;53.760;9.678;2022-12-11T05:10:05;-1.98;83.08
65374;SHT31;52070;53.760;9.678;2022-12-11T05:12:34;-2.03;83.00
65374;SHT31;52070;53.760;9.678;2022-12-11T05:15:02;-2.06;83.18
65374;SHT31;52070;53.760;9.678;2022-12-11T05:17:29;-2.03;82.52
65374;SHT31;52070;53.760;9.678;2022-12-11T05:19:56;-2.01;82.29
65374;SHT31;52070;53.760;9.678;2022-12-11T05:22:23;-1.97;82.61
65374;SHT31;52070;53.760;9.678;2022-12-11T05:24:49;-2.01;82.80
65374;SHT31;52070;53.760;9.678;2022-12-11T05:27:16;-2.06;82.97
65374;SHT31;52070;53.760;9.678;2022-12-11T05:29:45;-2.04;83.12
65374;SHT31;52070;53.760;9.678;2022-12-11T05:32:12;-2.03;83.33
65374;SHT31;52070;53.760;9.678;2022-12-11T05:34:39;-2.07;83.41
65374;SHT31;52070;53.760;9.678;2022-12-11T05:37:06;-2.00;83.39
65374;SHT31;52070;53.760;9.678;2022-12-11T05:39:33;-2.04;83.14
65374;SHT31;52070;53.760;9.678;2022-12-11T05:42:00;-2.04;83.41
65374;SHT31;52070;53.760;9.678;2022-12-11T05:44:27;-2.06;83.32
65374;SHT31;52070;53.760;9.678;2022-12-11T05:46:55;-2.08;82.89
65374;SHT31;52070;53.760;9.678;2022-12-11T05:49:23;-2.08;82.72
65374;SHT31;52070;53.760;9.678;2022-12-11T05:51:50;-2.10;82.94
65374;SHT31;52070;53.760;9.678;2022-12-11T05:54:17;-2.10;82.93
65374;SHT31;52070;53.760;9.678;2022-12-11T05:56:44;-2.10;83.13
65374;SHT31;52070;53.760;9.678;2022-12-11T05:59:11;-2.08;82.64
65374;SHT31;52070;53.760;9.678;2022-12-11T06:01:39;-2.04;82.28
65374;SHT31;52070;53.760;9.678;2022-12-11T06:04:09;-2.07;82.59
65374;SHT31;52070;53.760;9.678;2022-12-11T06:06:38;-2.04;82.34
65374;SHT31;52070;53.760;9.678;2022-12-11T06:09:06;-2.07;82.55
65374;SHT31;52070;53.760;9.678;2022-12-11T06:11:33;-2.07;82.32
65374;SHT31;52070;53.760;9.678;2022-12-11T06:14:02;-2.10;81.97
65374;SHT31;52070;53.760;9.678;2022-12-11T06:16:29;-2.07;81.71
65374;SHT31;52070;53.760;9.678;2022-12-11T06:18:56;-2.10;81.99
65374;SHT31;52070;53.760;9.678;2022-12-11T06:21:27;-2.14;82.48
65374;SHT31;52070;53.760;9.678;2022-12-11T06:23:55;-2.13;82.76
65374;SHT31;52070;53.760;9.678;2022-12-11T06:26:22;-2.13;82.95
65374;SHT31;52070;53.760;9.678;2022-12-11T06:28:49;-2.17;83.31
65374;SHT31;52070;53.760;9.678;2022-12-11T06:31:17;-2.20;83.41
65374;SHT31;52070;53.760;9.678;2022-12-11T06:33:44;-2.20;83.49
65374;SHT31;52070;53.760;9.678;2022-12-11T06:36:14;-2.24;83.54
65374;SHT31;52070;53.760;9.678;2022-12-11T06:38:43;-2.26;83.71
65374;SHT31;52070;53.760;9.678;2022-12-11T06:41:11;-2.27;83.88
65374;SHT31;52070;53.760;9.678;2022-12-11T06:43:39;-2.30;84.02
65374;SHT31;52070;53.760;9.678;2022-12-11T06:46:07;-2.33;84.18
65374;SHT31;52070;53.760;9.678;2022-12-11T06:48:34;-2.35;84.20
65374;SHT31;52070;53.760;9.678;2022-12-11T06:51:04;-2.38;84.34
65374;SHT31;52070;53.760;9.678;2022-12-11T06:53:32;-2.41;84.24
65374;SHT31;52070;53.760;9.678;2022-12-11T06:56:02;-2.45;84.34
65374;SHT31;52070;53.760;9.678;2022-12-11T06:58:30;-2.49;84.48
65374;SHT31;52070;53.760;9.678;2022-12-11T07:00:57;-2.54;84.70
65374;SHT31;52070;53.760;9.678;2022-12-11T07:03:24;-2.57;84.85
65374;SHT31;52070;53.760;9.678;2022-12-11T07:05:50;-2.58;84.79
65374;SHT31;52070;53.760;9.678;2022-12-11T07:08:18;-2.66;84.86
65374;SHT31;52070;53.760;9.678;2022-12-11T07:10:44;-2.72;85.07
65374;SHT31;52070;53.760;9.678;2022-12-11T07:13:13;-2.82;85.38
65374;SHT31;52070;53.760;9.678;2022-12-11T07:15:40;-2.89;85.74
65374;SHT31;52070;53.760;9.678;2022-12-11T07:18:07;-2.90;86.02
65374;SHT31;52070;53.760;9.678;2022-12-11T07:20:35;-2.96;86.28
65374;SHT31;52070;53.760;9.678;2022-12-11T07:23:02;-3.02;86.47
65374;SHT31;52070;53.760;9.678;2022-12-11T07:25:29;-3.04;86.45
65374;SHT31;52070;53.760;9.678;2022-12-11T07:27:56;-3.12;86.80
65374;SHT31;52070;53.760;9.678;2022-12-11T07:30:24;-3.16;87.00
65374;SHT31;52070;53.760;9.678;2022-12-11T07:32:51;-3.20;87.04
65374;SHT31;52070;53.760;9.678;2022-12-11T07:35:18;-3.27;87.17
65374;SHT31;52070;53.760;9.678;2022-12-11T07:37:45;-3.33;87.22
65374;SHT31;52070;53.760;9.678;2022-12-11T07:40:12;-3.34;87.27
65374;SHT31;52070;53.760;9.678;2022-12-11T07:42:39;-3.43;87.40
65374;SHT31;52070;53.760;9.678;2022-12-11T07:45:07;-3.44;87.51
65374;SHT31;52070;53.760;9.678;2022-12-11T07:47:35;-3.50;87.60
65374;SHT31;52070;53.760;9.678;2022-12-11T07:50:02;-3.55;87.65
65374;SHT31;52070;53.760;9.678;2022-12-11T07:52:31;-3.58;87.64
65374;SHT31;52070;53.760;9.678;2022-12-11T07:54:59;-3.57;87.64
65374;SHT31;52070;53.760;9.678;2022-12-11T07:57:26;-3.61;87.79
65374;SHT31;52070;53.760;9.678;2022-12-11T07:59:53;-3.64;87.92
65374;SHT31;52070;53.760;9.678;2022-12-11T08:02:20;-3.67;87.92
65374;SHT31;52070;53.760;9.678;2022-12-11T08:04:48;-3.67;87.97
65374;SHT31;52070;53.760;9.678;2022-12-11T08:07:15;-3.64;88.14
65374;SHT31;52070;53.760;9.678;2022-12-11T08:09:42;-3.64;88.28
65374;SHT31;52070;53.760;9.678;2022-12-11T08:12:09;-3.64;88.38
65374;SHT31;52070;53.760;9.678;2022-12-11T08:14:36;-3.67;88.46
65374;SHT31;52070;53.760;9.678;2022-12-11T08:17:03;-3.65;88.41
65374;SHT31;52070;53.760;9.678;2022-12-11T08:19:30;-3.67;88.39
65374;SHT31;52070;53.760;9.678;2022-12-11T08:21:59;-3.68;88.46
65374;SHT31;52070;53.760;9.678;2022-12-11T08:24:26;-3.68;88.51
65374;SHT31;52070;53.760;9.678;2022-12-11T08:26:53;-3.71;88.45
65374;SHT31;52070;53.760;9.678;2022-12-11T08:29:20;-3.70;88.46
65374;SHT31;52070;53.760;9.678;2022-12-11T08:31:47;-3.68;88.48
65374;SHT31;52070;53.760;9.678;2022-12-11T08:34:14;-3.71;88.49
65374;SHT31;52070;53.760;9.678;2022-12-11T08:36:41;-3.73;88.56
65374;SHT31;52070;53.760;9.678;2022-12-11T08:39:10;-3.67;88.56
65374;SHT31;52070;53.760;9.678;2022-12-11T08:41:37;-3.63;88.55
65374;SHT31;52070;53.760;9.678;2022-12-11T08:44:04;-3.54;88.52
65374;SHT31;52070;53.760;9.678;2022-12-11T08:46:31;-3.53;88.41
65374;SHT31;52070;53.760;9.678;2022-12-11T08:48:58;-3.47;88.38
65374;SHT31;52070;53.760;9.678;2022-12-11T08:51:27;-3.42;88.28
65374;SHT31;52070;53.760;9.678;2022-12-11T08:53:55;-3.43;88.18
65374;SHT31;52070;53.760;9.678;2022-12-11T08:56:24;-3.42;88.16
65374;SHT31;52070;53.760;9.678;2022-12-11T08:58:51;-3.40;88.17
65374;SHT31;52070;53.760;9.678;2022-12-11T09:01:20;-3.43;88.18
65374;SHT31;52070;53.760;9.678;2022-12-11T09:03:48;-3.34;88.20
65374;SHT31;52070;53.760;9.678;2022-12-11T09:06:18;-3.36;88.28
65374;SHT31;52070;53.760;9.678;2022-12-11T09:08:47;-3.29;88.35
65374;SHT31;52070;53.760;9.678;2022-12-11T09:11:16;-3.20;88.36
65374;SHT31;52070;53.760;9.678;2022-12-11T09:13:45;-3.07;88.33
65374;SHT31;52070;53.760;9.678;2022-12-11T09:16:14;-2.96;88.13
65374;SHT31;52070;53.760;9.678;2022-12-11T09:18:41;-2.79;87.87
65374;SHT31;52070;53.760;9.678;2022-12-11T09:21:10;-2.49;88.36
65374;SHT31;52070;53.760;9.678;2022-12-11T09:23:38;-2.37;88.20
65374;SHT31;52070;53.760;9.678;2022-12-11T09:26:05;-2.17;87.75
65374;SHT31;52070;53.760;9.678;2022-12-11T09:28:33;-2.00;87.10
65374;SHT31;52070;53.760;9.678;2022-12-11T09:31:08;-1.74;86.67
65374;SHT31;52070;53.760;9.678;2022-12-11T09:33:35;-1.46;85.35
65374;SHT31;52070;53.760;9.678;2022-12-11T09:36:03;-1.08;84.56
65374;SHT31;52070;53.760;9.678;2022-12-11T09:38:37;-0.85;83.01
65374;SHT31;52070;53.760;9.678;2022-12-11T09:41:25;-0.67;82.26
65374;SHT31;52070;53.760;9.678;2022-12-11T09:44:15;-0.54;81.60
65374;SHT31;52070;53.760;9.678;2022-12-11T09:46:51;-0.33;80.42
65374;SHT31;52070;53.760;9.678;2022-12-11T09:49:26;-0.26;79.59
65374;SHT31;52070;53.760;9.678;2022-12-11T09:52:08;-0.12;76.07
65374;SHT31;52070;53.760;9.678;2022-12-11T09:54:37;0.05;76.31
65374;SHT31;52070;53.760;9.678;2022-12-11T09:57:14;0.32;76.73
65374;SHT31;52070;53.760;9.678;2022-12-11T09:59:58;0.33;75.21
65374;SHT31;52070;53.760;9.678;2022-12-11T10:02:42;0.33;74.11
65374;SHT31;52070;53.760;9.678;2022-12-11T10:05:17;0.52;73.46
65374;SHT31;52070;53.760;9.678;2022-12-11T10:07:50;0.59;74.50
65374;SHT31;52070;53.760;9.678;2022-12-11T10:10:22;0.66;74.49
65374;SHT31;52070;53.760;9.678;2022-12-11T10:13:00;0.76;74.80
65374;SHT31;52070;53.760;9.678;2022-12-11T10:15:34;0.65;72.94
65374;SHT31;52070;53.760;9.678;2022-12-11T10:18:10;0.41;73.63
65374;SHT31;52070;53.760;9.678;2022-12-11T10:20:37;0.32;73.96
65374;SHT31;52070;53.760;9.678;2022-12-11T10:23:07;0.19;74.74
65374;SHT31;52070;53.760;9.678;2022-12-11T10:25:41;0.07;73.78
65374;SHT31;52070;53.760;9.678;2022-12-11T10:28:11;-0.03;72.26
65374;SHT31;52070;53.760;9.678;2022-12-11T10:30:44;-0.32;74.41
65374;SHT31;52070;53.760;9.678;2022-12-11T10:33:18;-0.53;75.96
65374;SHT31;52070;53.760;9.678;2022-12-11T10:35:48;-0.61;76.34
65374;SHT31;52070;53.760;9.678;2022-12-11T10:38:20;-0.83;76.40
65374;SHT31;52070;53.760;9.678;2022-12-11T10:40:50;-0.97;76.18
65374;SHT31;52070;53.760;9.678;2022-12-11T10:43:18;-0.89;76.37
65374;SHT31;52070;53.760;9.678;2022-12-11T10:45:51;-0.97;77.05
65374;SHT31;52070;53.760;9.678;2022-12-11T10:48:21;-0.97;76.92
65374;SHT31;52070;53.760;9.678;2022-12-11T10:51:00;-1.08;77.56
65374;SHT31;52070;53.760;9.678;2022-12-11T10:53:28;-1.02;77.32
65374;SHT31;52070;53.760;9.678;2022-12-11T10:55:56;-1.07;77.58
65374;SHT31;52070;53.760;9.678;2022-12-11T10:58:25;-1.09;78.14
65374;SHT31;52070;53.760;9.678;2022-12-11T11:01:08;-1.12;78.44
65374;SHT31;52070;53.760;9.678;2022-12-11T11:03:58;-1.16;78.80
65374;SHT31;52070;53.760;9.678;2022-12-11T11:10:13;-1.19;78.54
65374;SHT31;52070;53.760;9.678;2022-12-11T11:12:47;-1.19;78.97
65374;SHT31;52070;53.760;9.678;2022-12-11T11:15:18;-1.18;79.14
65374;SHT31;52070;53.760;9.678;2022-12-11T11:17:47;-1.02;78.01
65374;SHT31;52070;53.760;9.678;2022-12-11T11:20:18;-0.87;76.80
65374;SHT31;52070;53.760;9.678;2022-12-11T11:22:48;-0.88;76.17
65374;SHT31;52070;53.760;9.678;2022-12-11T11:25:36;-0.87;76.14
65374;SHT31;52070;53.760;9.678;2022-12-11T11:28:04;-0.87;76.64
65374;SHT31;52070;53.760;9.678;2022-12-11T11:30:34;-0.98;76.68
65374;SHT31;52070;53.760;9.678;2022-12-11T11:33:03;-1.01;77.42
65374;SHT31;52070;53.760;9.678;2022-12-11T11:35:32;-0.99;78.02
65374;SHT31;52070;53.760;9.678;2022-12-11T11:38:03;-0.95;78.21
65374;SHT31;52070;53.760;9.678;2022-12-11T11:40:36;-0.88;77.91
65374;SHT31;52070;53.760;9.678;2022-12-11T11:43:16;-0.84;77.43
65374;SHT31;52070;53.760;9.678;2022-12-11T11:45:50;-0.80;77.34
65374;SHT31;52070;53.760;9.678;2022-12-11T11:48:28;-0.67;77.65
65374;SHT31;52070;53.760;9.678;2022-12-11T11:51:06;-0.56;77.66
65374;SHT31;52070;53.760;9.678;2022-12-11T11:53:36;-0.20;75.70
65374;SHT31;52070;53.760;9.678;2022-12-11T11:56:16;0.26;75.77
65374;SHT31;52070;53.760;9.678;2022-12-11T11:58:51;0.79;74.63
65374;SHT31;52070;53.760;9.678;2022-12-11T12:01:21;1.19;73.10
65374;SHT31;52070;53.760;9.678;2022-12-11T12:03:48;1.57;72.85
65374;SHT31;52070;53.760;9.678;2022-12-11T12:06:33;1.92;70.61
65374;SHT31;52070;53.760;9.678;2022-12-11T12:09:16;2.10;69.47
65374;SHT31;52070;53.760;9.678;2022-12-11T12:11:48;2.29;68.38
65374;SHT31;52070;53.760;9.678;2022-12-11T12:14:21;2.52;69.50
65374;SHT31;52070;53.760;9.678;2022-12-11T12:16:57;2.53;66.79
65374;SHT31;52070;53.760;9.678;2022-12-11T12:19:42;2.54;66.83
65374;SHT31;52070;53.760;9.678;2022-12-11T12:22:23;2.68;65.97
65374;SHT31;52070;53.760;9.678;2022-12-11T12:25:02;2.71;65.63
65374;SHT31;52070;53.760;9.678;2022-12-11T12:27:38;2.80;65.69
65374;SHT31;52070;53.760;9.678;2022-12-11T12:30:08;2.91;66.24
65374;SHT31;52070;53.760;9.678;2022-12-11T12:32:46;2.88;64.61
65374;SHT31;52070;53.760;9.678;2022-12-11T12:35:30;2.81;63.48
65374;SHT31;52070;53.760;9.678;2022-12-11T12:38:05;2.50;63.51
65374;SHT31;52070;53.760;9.678;2022-12-11T12:40:43;2.42;63.57
65374;SHT31;52070;53.760;9.678;2022-12-11T12:43:29;2.61;63.95
65374;SHT31;52070;53.760;9.678;2022-12-11T12:46:04;2.64;64.30
65374;SHT31;52070;53.760;9.678;2022-12-11T12:48:35;2.71;63.95
65374;SHT31;52070;53.760;9.678;2022-12-11T12:51:02;2.79;65.50
65374;SHT31;52070;53.760;9.678;2022-12-11T12:53:33;2.79;65.51
65374;SHT31;52070;53.760;9.678;2022-12-11T12:56:02;2.47;63.02
65374;SHT31;52070;53.760;9.678;2022-12-11T12:58:41;2.39;64.85
65374;SHT31;52070;53.760;9.678;2022-12-11T13:01:09;2.43;65.62
65374;SHT31;52070;53.760;9.678;2022-12-11T13:03:49;2.53;65.59
65374;SHT31;52070;53.760;9.678;2022-12-11T13:06:28;2.40;65.40
65374;SHT31;52070;53.760;9.678;2022-12-11T13:08:56;2.40;65.30
65374;SHT31;52070;53.760;9.678;2022-12-11T13:11:31;2.44;65.94
65374;SHT31;52070;53.760;9.678;2022-12-11T13:14:02;2.44;66.29
65374;SHT31;52070;53.760;9.678;2022-12-11T13:16:35;2.23;65.50
65374;SHT31;52070;53.760;9.678;2022-12-11T13:19:03;2.12;66.59
65374;SHT31;52070;53.760;9.678;2022-12-11T13:21:41;1.95;67.66
65374;SHT31;52070;53.760;9.678;2022-12-11T13:24:24;1.89;66.51
65374;SHT31;52070;53.760;9.678;2022-12-11T13:26:51;1.55;66.99
65374;SHT31;52070;53.760;9.678;2022-12-11T13:29:30;1.12;69.12
65374;SHT31;52070;53.760;9.678;2022-12-11T13:31:58;0.96;70.33
65374;SHT31;52070;53.760;9.678;2022-12-11T13:34:30;0.84;71.09
65374;SHT31;52070;53.760;9.678;2022-12-11T13:36:58;0.73;71.69
65374;SHT31;52070;53.760;9.678;2022-12-11T13:40:14;0.66;71.98
65374;SHT31;52070;53.760;9.678;2022-12-11T13:42:47;0.58;72.97
65374;SHT31;52070;53.760;9.678;2022-12-11T13:45:21;0.55;72.56
65374;SHT31;52070;53.760;9.678;2022-12-11T13:47:49;0.48;72.63
65374;SHT31;52070;53.760;9.678;2022-12-11T13:50:21;0.41;72.49
65374;SHT31;52070;53.760;9.678;2022-12-11T13:52:53;0.37;72.67
65374;SHT31;52070;53.760;9.678;2022-12-11T13:55:24;0.35;72.91
65374;SHT31;52070;53.760;9.678;2022-12-11T13:57:51;0.35;73.46
65374;SHT31;52070;53.760;9.678;2022-12-11T14:00:21;0.25;74.06
65374;SHT31;52070;53.760;9.678;2022-12-11T14:02:49;0.14;73.61
65374;SHT31;52070;53.760;9.678;2022-12-11T14:05:18;0.04;74.08
65374;SHT31;52070;53.760;9.678;2022-12-11T14:07:48;-0.15;74.44
65374;SHT31;52070;53.760;9.678;2022-12-11T14:10:17;-0.24;74.93
65374;SHT31;52070;53.760;9.678;2022-12-11T14:12:52;-0.32;75.30
65374;SHT31;52070;53.760;9.678;2022-12-11T14:15:34;-0.41;75.10
65374;SHT31;52070;53.760;9.678;2022-12-11T14:18:03;-0.44;75.15
65374;SHT31;52070;53.760;9.678;2022-12-11T14:20:32;-0.52;75.97
65374;SHT31;52070;53.760;9.678;2022-12-11T14:23:06;-0.64;76.55
65374;SHT31;52070;53.760;9.678;2022-12-11T14:25:34;-0.70;76.81
65374;SHT31;52070;53.760;9.678;2022-12-11T14:28:02;-0.77;77.20
65374;SHT31;52070;53.760;9.678;2022-12-11T14:30:32;-0.81;77.45
65374;SHT31;52070;53.760;9.678;2022-12-11T14:33:01;-0.81;76.77
65374;SHT31;52070;53.760;9.678;2022-12-11T14:35:32;-0.92;76.84
65374;SHT31;52070;53.760;9.678;2022-12-11T14:38:03;-1.02;77.40
65374;SHT31;52070;53.760;9.678;2022-12-11T14:40:35;-1.08;78.30
65374;SHT31;52070;53.760;9.678;2022-12-11T14:43:08;-1.12;78.84
65374;SHT31;52070;53.760;9.678;2022-12-11T14:45:38;-1.19;79.19
65374;SHT31;52070;53.760;9.678;2022-12-11T14:48:09;-1.25;79.50
65374;SHT31;52070;53.760;9.678;2022-12-11T14:50:41;-1.36;79.31
65374;SHT31;52070;53.760;9.678;2022-12-11T14:53:14;-1.39;79.99
65374;SHT31;52070;53.760;9.678;2022-12-11T14:55:41;-1.45;80.59
65374;SHT31;52070;53.760;9.678;2022-12-11T14:58:15;-1.51;80.83
65374;SHT31;52070;53.760;9.678;2022-12-11T15:00:43;-1.55;81.01
65374;SHT31;52070;53.760;9.678;2022-12-11T15:03:22;-1.58;81.55
65374;SHT31;52070;53.760;9.678;2022-12-11T15:05:51;-1.64;81.55
65374;SHT31;52070;53.760;9.678;2022-12-11T15:08:21;-1.64;81.45
65374;SHT31;52070;53.760;9.678;2022-12-11T15:10:59;-1.72;81.59
65374;SHT31;52070;53.760;9.678;2022-12-11T15:13:29;-1.74;82.42
65374;SHT31;52070;53.760;9.678;2022-12-11T15:15:57;-1.84;81.98
65374;SHT31;52070;53.760;9.678;2022-12-11T15:18:27;-1.86;82.52
65374;SHT31;52070;53.760;9.678;2022-12-11T15:20:57;-1.89;82.51
65374;SHT31;52070;53.760;9.678;2022-12-11T15:23:25;-1.90;82.11
65374;SHT31;52070;53.760;9.678;2022-12-11T15:25:54;-1.91;81.92
65374;SHT31;52070;53.760;9.678;2022-12-11T15:28:29;-1.87;82.34
65374;SHT31;52070;53.760;9.678;2022-12-11T15:30:57;-1.90;82.37
65374;SHT31;52070;53.760;9.678;2022-12-11T15:33:25;-1.91;82.93
65374;SHT31;52070;53.760;9.678;2022-12-11T15:35:55;-1.97;83.14
65374;SHT31;52070;53.760;9.678;2022-12-11T15:38:31;-1.98;83.37
65374;SHT31;52070;53.760;9.678;2022-12-11T15:40:58;-1.97;83.26
65374;SHT31;52070;53.760;9.678;2022-12-11T15:43:27;-1.98;83.30
65374;SHT31;52070;53.760;9.678;2022-12-11T15:45:55;-2.00;83.64
65374;SHT31;52070;53.760;9.678;2022-12-11T15:48:22;-2.03;83.38
65374;SHT31;52070;53.760;9.678;2022-12-11T15:50:49;-2.06;83.88
65374;SHT31;52070;53.760;9.678;2022-12-11T15:53:16;-2.06;84.07
65374;SHT31;52070;53.760;9.678;2022-12-11T15:55:44;-2.06;83.87